Welcome to Northern Hawkes Bay. New Zealand.
PWS Header
      nz Flag



Hit Counter


W3C Valid W3C Valid logo


    Wairoa

Select any of the Stations below to visit their websites.










Historic Data from Weather Underground
Select the location of interest below. Wairoa is the default. Please have patience, this Data is slow to load in.
Northern Hawkes Bay Historical Data
Daily Summary for April 5, 2017 Units:  Metric    English   Both
« Previous Day
Next Day »
Daily Weekly Monthly Yearly Custom
  High: Low: Average:
Temperature: 20.0 °C 14.6 °C 16.5 °C
Dew Point: 19.1 °C 14.4 °C 16.2 °C
Humidity: 99% 88% 98%
Wind Speed: 24.5km/h 0.0km/h 5.5km/h
Wind Gust: 35.6km/h - -
Wind- - SSW
Pressure: 1017.2 hPa 1000.6 hPa -
Precipitation: 61.5 mm    
Historical Graphs
 
 
Tabular Data for April 5, 2017
Time Temperature Dew Point Pressure Wind Wind Speed Wind Gust Humidity Rainfall Rate (Hourly) solar
00:04 15.0 °C 14.8 °C 1017.2 hPa ESE 6.1 km/h 25.6 km/h 99% 3.0 mm 0 W/m2
00:10 14.9 °C 14.8 °C 1017.2 hPa SE 7.2 km/h 23.3 km/h 99% 3.0 mm 0 W/m2
00:16 14.9 °C 14.8 °C 1017.2 hPa SE 7.2 km/h 23.3 km/h 99% 3.6 mm 0 W/m2
00:22 15.0 °C 14.8 °C 1017.2 hPa SE 13.4 km/h 21.9 km/h 99% 3.3 mm 0 W/m2
00:28 15.1 °C 14.9 °C 1016.5 hPa SE 11.1 km/h 19.5 km/h 99% 3.8 mm 0 W/m2
00:34 15.1 °C 14.9 °C 1016.5 hPa SE 9.7 km/h 27.0 km/h 99% 3.8 mm 0 W/m2
00:40 15.0 °C 14.8 °C 1016.8 hPa ESE 8.7 km/h 27.0 km/h 99% 3.8 mm 0 W/m2
00:46 15.0 °C 14.8 °C 1016.8 hPa SE 13.4 km/h 17.2 km/h 99% 3.6 mm 0 W/m2
00:52 15.0 °C 14.8 °C 1016.8 hPa SE 7.2 km/h 17.2 km/h 99% 3.6 mm 0 W/m2
00:58 15.1 °C 14.9 °C 1016.8 hPa SE 8.7 km/h 15.8 km/h 99% 3.8 mm 0 W/m2
01:04 15.2 °C 15.1 °C 1016.5 hPa SSE 9.7 km/h 21.9 km/h 99% 4.3 mm 0 W/m2
01:10 15.0 °C 14.8 °C 1016.5 hPa SSE 6.1 km/h 21.9 km/h 99% 3.8 mm 0 W/m2
01:16 15.1 °C 14.9 °C 1016.1 hPa SSE 13.4 km/h 20.9 km/h 99% 4.3 mm 0 W/m2
01:22 15.1 °C 14.9 °C 1016.5 hPa SSE 7.2 km/h 20.9 km/h 99% 5.1 mm 0 W/m2
01:28 15.0 °C 14.8 °C 1016.5 hPa South 9.7 km/h 20.9 km/h 99% 5.1 mm 0 W/m2
01:34 15.1 °C 14.9 °C 1016.5 hPa South 11.1 km/h 23.3 km/h 99% 5.1 mm 0 W/m2
01:40 15.1 °C 14.9 °C 1016.1 hPa South 15.8 km/h 23.3 km/h 99% 5.6 mm 0 W/m2
01:46 15.2 °C 15.1 °C 1016.1 hPa South 17.2 km/h 28.0 km/h 99% 5.6 mm 0 W/m2
01:52 15.2 °C 15.1 °C 1016.1 hPa South 15.8 km/h 29.4 km/h 99% 6.3 mm 0 W/m2
01:58 15.1 °C 14.9 °C 1016.1 hPa South 17.2 km/h 29.4 km/h 99% 6.1 mm 0 W/m2
02:04 15.0 °C 14.8 °C 1015.5 hPa South 15.8 km/h 25.6 km/h 99% 5.6 mm 0 W/m2
02:10 15.0 °C 14.8 °C 1015.5 hPa South 15.8 km/h 29.4 km/h 99% 6.1 mm 0 W/m2
02:16 15.1 °C 14.9 °C 1015.5 hPa South 20.9 km/h 29.4 km/h 99% 6.1 mm 0 W/m2
02:22 15.2 °C 15.1 °C 1014.8 hPa South 20.9 km/h 30.6 km/h 99% 5.3 mm 0 W/m2
02:28 15.1 °C 14.9 °C 1014.8 hPa South 15.8 km/h 35.6 km/h 99% 5.1 mm 0 W/m2
02:34 15.1 °C 14.9 °C 1014.4 hPa South 24.5 km/h 35.6 km/h 99% 4.8 mm 0 W/m2
02:40 15.2 °C 15.1 °C 1014.4 hPa South 17.2 km/h 35.6 km/h 99% 4.6 mm 0 W/m2
02:46 15.3 °C 15.2 °C 1014.1 hPa SSW 14.8 km/h 28.0 km/h 99% 4.8 mm 0 W/m2
02:52 15.3 °C 15.2 °C 1014.1 hPa South 21.9 km/h 29.4 km/h 99% 4.6 mm 0 W/m2
02:58 15.2 °C 15.1 °C 1013.8 hPa SSW 17.2 km/h 30.6 km/h 99% 4.6 mm 0 W/m2
03:04 15.3 °C 15.2 °C 1013.8 hPa SSW 15.8 km/h 30.6 km/h 99% 4.6 mm 0 W/m2
03:10 15.2 °C 15.1 °C 1013.8 hPa SSW 15.8 km/h 28.0 km/h 99% 4.3 mm 0 W/m2
03:16 15.3 °C 15.2 °C 1013.8 hPa SSW 14.8 km/h 28.0 km/h 99% 4.3 mm 0 W/m2
03:22 15.3 °C 15.2 °C 1013.4 hPa SSW 13.4 km/h 25.6 km/h 99% 4.3 mm 0 W/m2
03:28 15.4 °C 15.3 °C 1013.1 hPa SW 13.4 km/h 25.6 km/h 99% 4.3 mm 0 W/m2
03:34 15.4 °C 15.3 °C 1012.8 hPa SSW 14.8 km/h 29.4 km/h 99% 4.3 mm 0 W/m2
03:40 15.4 °C 15.3 °C 1013.1 hPa SSW 14.8 km/h 29.4 km/h 99% 4.3 mm 0 W/m2
03:46 15.5 °C 15.3 °C 1012.4 hPa SSW 15.8 km/h 23.3 km/h 99% 4.3 mm 0 W/m2
03:52 15.5 °C 15.3 °C 1012.4 hPa SSW 18.3 km/h 27.0 km/h 99% 4.3 mm 0 W/m2
03:58 15.5 °C 15.3 °C 1012.4 hPa SW 17.2 km/h 27.0 km/h 99% 3.8 mm 0 W/m2
04:04 15.6 °C 15.4 °C 1012.4 hPa SW 13.4 km/h 27.0 km/h 99% 3.8 mm 0 W/m2
04:10 15.6 °C 15.4 °C 1012.1 hPa SW 18.3 km/h 28.0 km/h 99% 3.6 mm 0 W/m2
04:16 15.6 °C 15.4 °C 1012.1 hPa SW 14.8 km/h 28.0 km/h 99% 3.3 mm 0 W/m2
04:22 15.6 °C 15.4 °C 1011.7 hPa SW 13.4 km/h 24.5 km/h 99% 3.0 mm 0 W/m2
04:27 15.6 °C 15.4 °C 1012.1 hPa SW 12.2 km/h 23.3 km/h 99% 3.3 mm 0 W/m2
04:34 15.5 °C 15.3 °C 1011.7 hPa SW 18.3 km/h 27.0 km/h 99% 3.0 mm 0 W/m2
04:40 15.5 °C 15.3 °C 1011.4 hPa SW 8.7 km/h 23.3 km/h 99% 3.3 mm 0 W/m2
04:45 15.5 °C 15.3 °C 1011.1 hPa SW 12.2 km/h 23.3 km/h 99% 3.0 mm 0 W/m2
04:52 15.5 °C 15.3 °C 1011.1 hPa WSW 12.2 km/h 24.5 km/h 99% 2.8 mm 0 W/m2
04:58 15.5 °C 15.3 °C 1011.1 hPa WSW 8.7 km/h 19.5 km/h 99% 2.8 mm 0 W/m2
05:04 15.5 °C 15.3 °C 1010.7 hPa WSW 14.8 km/h 20.9 km/h 99% 2.8 mm 0 W/m2
05:10 15.5 °C 15.3 °C 1010.7 hPa West 6.1 km/h 20.9 km/h 99% 2.8 mm 0 W/m2
05:16 15.4 °C 15.3 °C 1010.7 hPa West 5.0 km/h 14.8 km/h 99% 2.8 mm 0 W/m2
05:21 15.4 °C 15.3 °C 1010.7 hPa West 7.2 km/h 15.8 km/h 99% 2.3 mm 0 W/m2
05:28 15.4 °C 15.3 °C 1010.7 hPa West 5.0 km/h 15.8 km/h 99% 2.0 mm 0 W/m2
05:34 15.4 °C 15.3 °C 1010.4 hPa West 3.5 km/h 21.9 km/h 99% 1.8 mm 0 W/m2
05:40 15.4 °C 15.3 °C 1010.0 hPa Calm   17.2 km/h 99% 1.5 mm 0 W/m2
05:45 15.4 °C 15.3 °C 1010.0 hPa Calm   14.8 km/h 99% 1.8 mm 0 W/m2
05:52 15.4 °C 15.3 °C 1010.0 hPa West 9.7 km/h 18.3 km/h 99% 1.5 mm 0 W/m2
05:57 15.4 °C 15.3 °C 1010.0 hPa West 6.1 km/h 18.3 km/h 99% 1.3 mm 0 W/m2
06:04 15.4 °C 15.3 °C 1010.0 hPa WNW 6.1 km/h 8.7 km/h 99% 1.3 mm 0 W/m2
06:10 15.4 °C 15.3 °C 1010.0 hPa NW 7.2 km/h 13.4 km/h 99% 1.3 mm 0 W/m2
06:15 15.4 °C 15.3 °C 1010.4 hPa NNW 5.0 km/h 15.8 km/h 99% 1.3 mm 0 W/m2
06:22 15.3 °C 15.2 °C 1010.4 hPa NNW 1.1 km/h 9.7 km/h 99% 1.3 mm 0 W/m2
06:27 15.2 °C 15.1 °C 1010.4 hPa Calm   8.7 km/h 99% 1.3 mm 0 W/m2
06:34 15.1 °C 14.9 °C 1010.4 hPa Calm   8.7 km/h 99% 1.5 mm 0 W/m2
06:40 15.1 °C 14.9 °C 1010.0 hPa NNW 6.1 km/h 11.1 km/h 99% 1.5 mm 2 W/m2
06:46 15.1 °C 14.9 °C 1010.4 hPa NNW 1.1 km/h 11.1 km/h 99% 1.5 mm 3 W/m2
06:52 15.0 °C 14.8 °C 1010.4 hPa NNW 5.0 km/h 8.7 km/h 99% 1.8 mm 6 W/m2
06:57 14.9 °C 14.8 °C 1010.4 hPa NNW 3.5 km/h 8.7 km/h 99% 1.5 mm 17 W/m2
07:04 14.8 °C 14.7 °C 1010.7 hPa North 2.6 km/h 11.1 km/h 99% 1.8 mm 22 W/m2
07:10 14.7 °C 14.6 °C 1010.7 hPa North 5.0 km/h 11.1 km/h 99% 1.8 mm 44 W/m2
07:15 14.7 °C 14.6 °C 1010.4 hPa NNW 2.6 km/h 9.7 km/h 99% 1.8 mm 27 W/m2
07:22 14.7 °C 14.6 °C 1010.4 hPa NNW 5.0 km/h 12.2 km/h 99% 1.8 mm 20 W/m2
07:27 14.7 °C 14.6 °C 1010.7 hPa NNW 8.7 km/h 14.8 km/h 99% 2.0 mm 25 W/m2
07:34 14.7 °C 14.6 °C 1010.7 hPa North 5.0 km/h 14.8 km/h 99% 2.0 mm 18 W/m2
07:40 14.7 °C 14.6 °C 1011.1 hPa North 5.0 km/h 11.1 km/h 99% 2.0 mm 11 W/m2
07:45 14.7 °C 14.6 °C 1011.1 hPa North 5.0 km/h 12.2 km/h 99% 2.0 mm 10 W/m2
07:51 14.6 °C 14.4 °C 1010.7 hPa North 6.1 km/h 12.2 km/h 99% 2.3 mm 13 W/m2
07:57 14.6 °C 14.4 °C 1010.7 hPa North 5.0 km/h 13.4 km/h 99% 3.0 mm 20 W/m2
08:04 14.6 °C 14.4 °C 1010.7 hPa North 5.0 km/h 8.7 km/h 99% 3.3 mm 38 W/m2
08:10 14.7 °C 14.6 °C 1010.7 hPa North 6.1 km/h 11.1 km/h 99% 3.6 mm 44 W/m2
08:15 14.7 °C 14.6 °C 1011.1 hPa North 7.2 km/h 12.2 km/h 99% 3.8 mm 31 W/m2
08:21 14.7 °C 14.6 °C 1010.7 hPa NNW 6.1 km/h 12.2 km/h 99% 4.3 mm 51 W/m2
08:27 14.7 °C 14.6 °C 1010.7 hPa North 5.0 km/h 14.8 km/h 99% 4.6 mm 42 W/m2
08:33 14.7 °C 14.6 °C 1011.1 hPa North 6.1 km/h 14.8 km/h 99% 4.6 mm 38 W/m2
08:40 14.7 °C 14.6 °C 1010.7 hPa North 2.6 km/h 12.2 km/h 99% 4.8 mm 46 W/m2
08:45 14.7 °C 14.6 °C 1010.4 hPa North 1.1 km/h 11.1 km/h 99% 4.6 mm 57 W/m2
08:51 14.8 °C 14.7 °C 1010.4 hPa Calm   8.7 km/h 99% 4.6 mm 93 W/m2
08:57 14.9 °C 14.8 °C 1010.4 hPa North 2.6 km/h 7.2 km/h 99% 4.3 mm 72 W/m2
09:04 15.0 °C 14.8 °C 1011.4 hPa NNW 8.7 km/h 12.2 km/h 99% 3.3 mm 35 W/m2
09:10 15.0 °C 14.8 °C 1010.7 hPa NNW 5.0 km/h 13.4 km/h 99% 3.6 mm 93 W/m2
09:16 15.0 °C 14.8 °C 1010.7 hPa NNW 5.0 km/h 11.1 km/h 99% 3.8 mm 105 W/m2
09:21 15.0 °C 14.8 °C 1010.4 hPa North 2.6 km/h 8.7 km/h 99% 4.3 mm 95 W/m2
09:27 15.0 °C 14.8 °C 1010.0 hPa North 3.5 km/h 9.7 km/h 99% 3.6 mm 80 W/m2
09:33 15.0 °C 14.8 °C 1010.4 hPa North 5.0 km/h 9.7 km/h 99% 3.3 mm 65 W/m2
09:40 15.0 °C 14.8 °C 1010.4 hPa North 1.1 km/h 9.7 km/h 99% 3.3 mm 61 W/m2
09:45 15.0 °C 14.8 °C 1010.7 hPa NNW 6.1 km/h 11.1 km/h 99% 3.0 mm 74 W/m2
09:51 15.1 °C 14.9 °C 1010.7 hPa NNW 2.6 km/h 11.1 km/h 99% 2.8 mm 112 W/m2
09:57 15.2 °C 15.1 °C 1010.7 hPa North 3.5 km/h 7.2 km/h 99% 3.0 mm 96 W/m2
10:03 15.1 °C 14.9 °C 1010.7 hPa NNW 7.2 km/h 11.1 km/h 99% 3.0 mm 73 W/m2
10:10 15.1 °C 14.9 °C 1010.7 hPa NNW 6.1 km/h 13.4 km/h 99% 2.8 mm 66 W/m2
10:15 15.1 °C 14.9 °C 1010.4 hPa NW 5.0 km/h 12.2 km/h 99% 2.8 mm 48 W/m2
10:21 15.1 °C 14.9 °C 1010.0 hPa North 2.6 km/h 9.7 km/h 99% 2.3 mm 32 W/m2
10:27 15.1 °C 14.9 °C 1010.4 hPa North 5.0 km/h 7.2 km/h 99% 2.8 mm 36 W/m2
10:33 15.1 °C 14.9 °C 1010.4 hPa North 3.5 km/h 8.7 km/h 99% 2.8 mm 76 W/m2
10:40 15.2 °C 15.1 °C 1010.4 hPa North 1.1 km/h 8.7 km/h 99% 2.8 mm 107 W/m2
10:45 15.3 °C 15.2 °C 1010.4 hPa North 5.0 km/h 9.7 km/h 99% 3.0 mm 142 W/m2
10:51 15.3 °C 15.2 °C 1010.0 hPa North 5.0 km/h 11.1 km/h 99% 2.8 mm 101 W/m2
10:57 15.2 °C 15.1 °C 1010.0 hPa North 5.0 km/h 11.1 km/h 99% 2.8 mm 59 W/m2
11:03 15.2 °C 15.1 °C 1009.4 hPa Calm   11.1 km/h 99% 3.3 mm 64 W/m2
11:10 15.2 °C 15.1 °C 1009.7 hPa Calm   6.1 km/h 99% 3.6 mm 57 W/m2
11:15 15.2 °C 15.1 °C 1009.7 hPa North 1.1 km/h 7.2 km/h 99% 3.8 mm 65 W/m2
11:21 15.3 °C 15.2 °C 1009.7 hPa Calm   7.2 km/h 99% 4.3 mm 105 W/m2
11:27 15.5 °C 15.3 °C 1009.7 hPa Calm   6.1 km/h 99% 4.3 mm 217 W/m2
11:33 15.8 °C 15.7 °C 1009.4 hPa Calm   6.1 km/h 99% 3.8 mm 289 W/m2
11:40 15.8 °C 15.7 °C 1009.7 hPa NNW 2.6 km/h 9.7 km/h 99% 3.6 mm 244 W/m2
11:45 16.0 °C 15.7 °C 1009.7 hPa North 3.5 km/h 9.7 km/h 98% 3.3 mm 219 W/m2
11:51 16.2 °C 15.9 °C 1009.7 hPa North 6.1 km/h 8.7 km/h 98% 3.3 mm 176 W/m2
11:57 16.1 °C 15.8 °C 1009.4 hPa North 2.6 km/h 8.7 km/h 98% 2.8 mm 197 W/m2
12:03 16.3 °C 16.0 °C 1009.4 hPa NNE 2.6 km/h 7.2 km/h 98% 2.0 mm 151 W/m2
12:10 15.9 °C 15.8 °C 1009.4 hPa Calm   11.1 km/h 99% 1.8 mm 107 W/m2
12:15 15.9 °C 15.8 °C 1009.4 hPa NNE 6.1 km/h 11.1 km/h 99% 1.5 mm 125 W/m2
12:21 15.9 °C 15.8 °C 1009.4 hPa Calm   7.2 km/h 99% 1.5 mm 116 W/m2
12:27 16.1 °C 15.8 °C 1009.0 hPa Calm   6.1 km/h 98% 1.5 mm 161 W/m2
12:33 16.2 °C 15.9 °C 1009.0 hPa NNW 3.5 km/h 9.7 km/h 98% 1.8 mm 202 W/m2
12:40 16.1 °C 15.8 °C 1009.0 hPa NNW 8.7 km/h 12.2 km/h 98% 2.0 mm 248 W/m2
12:45 16.1 °C 15.8 °C 1008.7 hPa North 3.5 km/h 12.2 km/h 98% 2.0 mm 274 W/m2
12:51 16.3 °C 16.0 °C 1008.7 hPa North 3.5 km/h 9.7 km/h 98% 2.0 mm 238 W/m2
12:57 16.4 °C 16.1 °C 1008.7 hPa North 3.5 km/h 7.2 km/h 98% 2.0 mm 255 W/m2
13:03 16.7 °C 16.4 °C 1008.7 hPa NNW 2.6 km/h 7.2 km/h 98% 2.0 mm 247 W/m2
13:10 17.0 °C 16.6 °C 1008.4 hPa Calm   8.7 km/h 97% 1.8 mm 404 W/m2
13:15 17.3 °C 16.8 °C 1008.0 hPa NNW 1.1 km/h 8.7 km/h 97% 1.3 mm 293 W/m2
13:21 17.5 °C 17.1 °C 1008.0 hPa Calm   8.7 km/h 97% 1.0 mm 299 W/m2
13:27 17.6 °C 16.8 °C 1008.0 hPa NNW 3.5 km/h 8.7 km/h 95% 0.5 mm 243 W/m2
13:33 17.5 °C 16.6 °C 1007.7 hPa North 1.1 km/h 7.2 km/h 94% 0.3 mm 205 W/m2
13:40 17.5 °C 16.4 °C 1007.7 hPa North 2.6 km/h 6.1 km/h 93% 0.0 mm 132 W/m2
13:45 17.5 °C 16.2 °C 1007.3 hPa Calm   6.1 km/h 92% 0.0 mm 117 W/m2
13:51 17.5 °C 16.2 °C 1007.3 hPa Calm     92% 0.0 mm 85 W/m2
13:57 17.3 °C 16.0 °C 1007.3 hPa Calm     92% 0.0 mm 63 W/m2
14:03 17.1 °C 15.9 °C 1007.3 hPa Calm     93% 0.0 mm 45 W/m2
14:10 17.1 °C 15.9 °C 1007.3 hPa Calm     93% 0.0 mm 78 W/m2
14:15 17.2 °C 16.2 °C 1007.3 hPa Calm     94% 0.0 mm 56 W/m2
14:21 17.3 °C 16.3 °C 1007.3 hPa Calm     94% 0.0 mm 70 W/m2
14:27 17.3 °C 16.2 °C 1007.0 hPa Calm     93% 0.0 mm 132 W/m2
14:33 17.4 °C 16.3 °C 1007.0 hPa Calm   1.1 km/h 93% 0.0 mm 103 W/m2
14:40 17.4 °C 16.3 °C 1007.0 hPa Calm     93% 0.0 mm 125 W/m2
14:45 17.4 °C 16.1 °C 1007.0 hPa Calm     92% 0.0 mm 95 W/m2
14:51 17.4 °C 16.1 °C 1007.0 hPa Calm     92% 0.0 mm 64 W/m2
14:57 17.4 °C 16.3 °C 1007.0 hPa Calm     93% 0.0 mm 72 W/m2
15:03 17.5 °C 16.4 °C 1007.0 hPa Calm     93% 0.0 mm 80 W/m2
15:10 17.6 °C 16.4 °C 1006.7 hPa Calm     93% 0.0 mm 92 W/m2
15:15 17.5 °C 16.2 °C 1006.7 hPa Calm     92% 0.0 mm 84 W/m2
15:21 17.5 °C 16.4 °C 1006.7 hPa Calm   5.0 km/h 93% 0.0 mm 65 W/m2
15:27 17.5 °C 16.4 °C 1006.3 hPa Calm   5.0 km/h 93% 0.0 mm 67 W/m2
15:33 17.5 °C 16.4 °C 1006.7 hPa Calm     93% 0.0 mm 79 W/m2
15:40 17.5 °C 16.4 °C 1006.7 hPa Calm     93% 0.0 mm 65 W/m2
15:45 17.4 °C 16.3 °C 1006.7 hPa Calm     93% 0.0 mm 43 W/m2
15:51 17.3 °C 16.2 °C 1006.7 hPa Calm   1.1 km/h 93% 0.0 mm 36 W/m2
15:57 17.2 °C 16.1 °C 1006.7 hPa NW 1.1 km/h 5.0 km/h 93% 0.0 mm 31 W/m2
16:03 17.1 °C 15.9 °C 1006.3 hPa Calm   5.0 km/h 93% 0.0 mm 33 W/m2
16:10 17.1 °C 16.1 °C 1006.3 hPa Calm   3.5 km/h 94% 0.3 mm 49 W/m2
16:15 17.0 °C 16.1 °C 1006.3 hPa North 3.5 km/h 5.0 km/h 94% 0.5 mm 27 W/m2
16:21 17.0 °C 16.2 °C 1006.0 hPa ENE 3.5 km/h 6.1 km/h 95% 0.5 mm 17 W/m2
16:27 16.8 °C 16.2 °C 1005.6 hPa East 1.1 km/h 7.2 km/h 96% 0.5 mm 13 W/m2
16:33 16.8 °C 16.2 °C 1005.6 hPa Calm   7.2 km/h 96% 0.5 mm 10 W/m2
16:40 16.8 °C 16.3 °C 1005.6 hPa Calm   6.1 km/h 97% 1.3 mm 11 W/m2
16:45 16.8 °C 16.3 °C 1005.3 hPa Calm   6.1 km/h 97% 1.3 mm 12 W/m2
16:51 16.8 °C 16.3 °C 1005.0 hPa Calm   3.5 km/h 97% 1.3 mm 11 W/m2
16:57 16.8 °C 16.5 °C 1004.6 hPa Calm   6.1 km/h 98% 1.3 mm 7 W/m2
17:03 16.9 °C 16.6 °C 1004.6 hPa Calm   6.1 km/h 98% 1.5 mm 4 W/m2
17:10 17.0 °C 16.6 °C 1004.6 hPa Calm   2.6 km/h 97% 1.5 mm 4 W/m2
17:15 17.2 °C 16.7 °C 1004.3 hPa Calm   3.5 km/h 97% 1.3 mm 3 W/m2
17:21 17.3 °C 16.8 °C 1004.3 hPa Calm   2.6 km/h 97% 1.3 mm 3 W/m2
17:27 17.3 °C 16.8 °C 1004.6 hPa WNW 1.1 km/h 5.0 km/h 97% 1.5 mm 2 W/m2
17:33 17.3 °C 16.8 °C 1004.6 hPa Calm   5.0 km/h 97% 1.5 mm 1 W/m2
17:40 17.3 °C 16.8 °C 1004.6 hPa Calm   1.1 km/h 97% 1.3 mm 0 W/m2
17:45 17.5 °C 17.1 °C 1004.6 hPa West 3.5 km/h 6.1 km/h 97% 1.3 mm 0 W/m2
17:51 17.5 °C 17.1 °C 1004.6 hPa Calm   7.2 km/h 97% 1.8 mm 0 W/m2
17:57 17.5 °C 17.1 °C 1004.3 hPa Calm   5.0 km/h 97% 2.0 mm 0 W/m2
18:03 17.5 °C 17.1 °C 1003.9 hPa ENE 5.0 km/h 12.2 km/h 97% 2.0 mm 0 W/m2
18:10 18.4 °C 18.3 °C 1004.3 hPa NNE 7.2 km/h 20.9 km/h 99% 2.3 mm 0 W/m2
18:15 18.7 °C 18.6 °C 1003.9 hPa NE 5.0 km/h 20.9 km/h 99% 3.0 mm 0 W/m2
18:21 18.7 °C 18.6 °C 1004.6 hPa NNE 12.2 km/h 19.5 km/h 99% 3.3 mm 0 W/m2
18:27 18.9 °C 18.8 °C 1004.6 hPa North 6.1 km/h 20.9 km/h 99% 3.3 mm 0 W/m2
18:33 18.9 °C 18.8 °C 1005.0 hPa North 8.7 km/h 20.9 km/h 99% 3.6 mm 0 W/m2
18:40 18.8 °C 18.5 °C 1004.6 hPa NNW 3.5 km/h 12.2 km/h 98% 4.3 mm 0 W/m2
18:45 18.7 °C 18.4 °C 1003.9 hPa NNW 3.5 km/h 7.2 km/h 98% 4.3 mm 0 W/m2
18:51 18.6 °C 18.3 °C 1004.3 hPa Calm   6.1 km/h 98% 3.6 mm 0 W/m2
18:57 18.5 °C 18.2 °C 1004.6 hPa Calm   3.5 km/h 98% 3.6 mm 0 W/m2
19:03 18.4 °C 18.1 °C 1005.0 hPa Calm   3.5 km/h 98% 3.8 mm 0 W/m2
19:10 18.5 °C 18.2 °C 1005.6 hPa NNW 8.7 km/h 11.1 km/h 98% 3.8 mm 0 W/m2
19:15 18.5 °C 18.3 °C 1005.3 hPa Calm   12.2 km/h 99% 4.8 mm 0 W/m2
19:21 18.4 °C 18.3 °C 1005.3 hPa Calm   12.2 km/h 99% 5.1 mm 0 W/m2
19:27 18.4 °C 18.3 °C 1005.0 hPa Calm   2.6 km/h 99% 5.3 mm 0 W/m2
19:33 18.3 °C 18.2 °C 1005.0 hPa Calm   3.5 km/h 99% 5.3 mm 0 W/m2
19:40 18.2 °C 18.1 °C 1005.6 hPa Calm   3.5 km/h 99% 5.1 mm 0 W/m2
19:45 18.3 °C 18.2 °C 1005.3 hPa Calm   3.5 km/h 99% 6.9 mm 0 W/m2
19:51 18.4 °C 18.3 °C 1005.3 hPa NE 5.0 km/h 8.7 km/h 99% 8.1 mm 0 W/m2
19:57 18.4 °C 18.3 °C 1005.3 hPa ENE 5.0 km/h 9.7 km/h 99% 8.1 mm 0 W/m2
20:03 18.4 °C 18.3 °C 1005.0 hPa East 7.2 km/h 15.8 km/h 99% 8.1 mm 0 W/m2
20:10 18.4 °C 18.3 °C 1005.0 hPa ENE 13.4 km/h 19.5 km/h 99% 8.1 mm 0 W/m2
20:15 18.4 °C 18.3 °C 1005.0 hPa ENE 3.5 km/h 19.5 km/h 99% 7.1 mm 0 W/m2
20:21 18.4 °C 18.3 °C 1004.3 hPa East 6.1 km/h 14.8 km/h 99% 6.9 mm 0 W/m2
20:27 18.4 °C 18.3 °C 1003.9 hPa ENE 7.2 km/h 12.2 km/h 99% 6.9 mm 0 W/m2
20:33 18.4 °C 18.3 °C 1003.6 hPa East 15.8 km/h 21.9 km/h 99% 6.6 mm 0 W/m2
20:40 18.4 °C 18.3 °C 1003.6 hPa East 17.2 km/h 21.9 km/h 99% 6.3 mm 0 W/m2
20:45 18.5 °C 18.3 °C 1003.6 hPa East 9.7 km/h 20.9 km/h 99% 4.8 mm 0 W/m2
20:51 18.5 °C 18.3 °C 1003.6 hPa ENE 11.1 km/h 20.9 km/h 99% 3.6 mm 0 W/m2
20:57 18.5 °C 18.3 °C 1003.6 hPa NE 14.8 km/h 17.2 km/h 99% 3.6 mm 0 W/m2
21:03 18.4 °C 18.3 °C 1003.6 hPa NE 9.7 km/h 17.2 km/h 99% 3.0 mm 0 W/m2
21:10 18.4 °C 18.3 °C 1003.6 hPa ENE 9.7 km/h 15.8 km/h 99% 3.0 mm 0 W/m2
21:15 18.4 °C 18.3 °C 1003.9 hPa ENE 2.6 km/h 15.8 km/h 99% 2.3 mm 0 W/m2
21:21 18.4 °C 18.3 °C 1003.9 hPa Calm   12.2 km/h 99% 2.3 mm 0 W/m2
21:27 18.3 °C 18.2 °C 1003.6 hPa Calm   3.5 km/h 99% 1.8 mm 0 W/m2
21:33 18.4 °C 18.3 °C 1003.6 hPa Calm   3.5 km/h 99% 1.5 mm 0 W/m2
21:40 18.3 °C 18.2 °C 1003.6 hPa Calm   3.5 km/h 99% 1.3 mm 0 W/m2
21:45 18.2 °C 18.1 °C 1003.3 hPa Calm     99% 1.3 mm 0 W/m2
21:51 18.2 °C 18.1 °C 1002.9 hPa Calm   1.1 km/h 99% 1.3 mm 0 W/m2
21:57 18.2 °C 18.1 °C 1002.9 hPa Calm   1.1 km/h 99% 1.0 mm 0 W/m2
22:03 18.1 °C 17.9 °C 1002.6 hPa Calm     99% 0.5 mm 0 W/m2
22:10 18.1 °C 17.9 °C 1002.3 hPa Calm     99% 0.3 mm 0 W/m2
22:15 18.1 °C 17.9 °C 1002.3 hPa Calm     99% 0.3 mm 0 W/m2
22:21 18.0 °C 17.8 °C 1001.2 hPa SE 1.1 km/h 2.6 km/h 99% 0.0 mm 0 W/m2
22:27 18.1 °C 17.9 °C 1001.2 hPa Calm   3.5 km/h 99% 0.0 mm 0 W/m2
22:33 18.1 °C 17.9 °C 1001.2 hPa Calm   3.5 km/h 99% 0.0 mm 0 W/m2
22:40 18.2 °C 18.1 °C 1001.2 hPa Calm   1.1 km/h 99% 0.0 mm 0 W/m2
22:45 18.3 °C 18.2 °C 1001.6 hPa North 2.6 km/h 6.1 km/h 99% 0.0 mm 0 W/m2
22:51 18.4 °C 18.3 °C 1001.2 hPa North 6.1 km/h 9.7 km/h 99% 0.0 mm 0 W/m2
22:57 18.5 °C 18.3 °C 1001.2 hPa NNE 3.5 km/h 9.7 km/h 99% 0.0 mm 0 W/m2
23:03 18.7 °C 18.6 °C 1000.9 hPa North 6.1 km/h 17.2 km/h 99% 0.0 mm 0 W/m2
23:10 19.0 °C 18.8 °C 1001.2 hPa North 9.7 km/h 17.2 km/h 99% 0.0 mm 0 W/m2
23:15 19.2 °C 19.1 °C 1001.2 hPa North 7.2 km/h 14.8 km/h 99% 0.0 mm 0 W/m2
23:21 19.4 °C 18.9 °C 1001.2 hPa NNE 6.1 km/h 14.8 km/h 97% 0.0 mm 0 W/m2
23:27 19.5 °C 18.9 °C 1000.9 hPa North 3.5 km/h 9.7 km/h 96% 0.0 mm 0 W/m2
23:33 19.4 °C 18.6 °C 1000.9 hPa North 5.0 km/h 9.7 km/h 95% 0.0 mm 0 W/m2
23:40 19.4 °C 18.4 °C 1000.6 hPa NNE 7.2 km/h 11.1 km/h 94% 0.0 mm 0 W/m2
23:45 19.5 °C 18.3 °C 1000.6 hPa NNE 7.2 km/h 11.1 km/h 93% 0.0 mm 0 W/m2
23:51 19.9 °C 18.2 °C 1000.6 hPa NNE 8.7 km/h 18.3 km/h 90% 0.0 mm 0 W/m2
23:57 20.0 °C 17.9 °C 1000.6 hPa NNE 6.1 km/h 17.2 km/h 88% 0.0 mm 0 W/m2
Northern Hawkes Bay. New Zealand Historic Data
Compliments of Weather Underground - 2 mb